sensor_id;sensor_type;location;lat;lon;timestamp;temperature;humidity
3035;DHT22;1527;48.836;9.172;2022-09-16T00:02:21;17.30;99.90
3035;DHT22;1527;48.836;9.172;2022-09-16T00:04:50;17.30;99.90
3035;DHT22;1527;48.836;9.172;2022-09-16T00:07:21;17.20;99.90
3035;DHT22;1527;48.836;9.172;2022-09-16T00:10:06;17.40;99.90
3035;DHT22;1527;48.836;9.172;2022-09-16T00:12:39;17.40;99.90
3035;DHT22;1527;48.836;9.172;2022-09-16T00:15:09;17.40;99.90
3035;DHT22;1527;48.836;9.172;2022-09-16T00:17:39;17.40;99.90
3035;DHT22;1527;48.836;9.172;2022-09-16T00:20:08;17.40;99.90
3035;DHT22;1527;48.836;9.172;2022-09-16T00:22:37;17.40;99.90
3035;DHT22;1527;48.836;9.172;2022-09-16T00:25:07;17.30;99.90
3035;DHT22;1527;48.836;9.172;2022-09-16T00:27:38;17.30;99.90
3035;DHT22;1527;48.836;9.172;2022-09-16T00:30:08;17.30;99.90
3035;DHT22;1527;48.836;9.172;2022-09-16T00:32:37;17.30;99.90
3035;DHT22;1527;48.836;9.172;2022-09-16T00:35:07;17.30;99.90
3035;DHT22;1527;48.836;9.172;2022-09-16T00:37:36;17.30;99.90
3035;DHT22;1527;48.836;9.172;2022-09-16T00:40:05;17.30;99.90
3035;DHT22;1527;48.836;9.172;2022-09-16T00:42:39;17.30;99.90
3035;DHT22;1527;48.836;9.172;2022-09-16T00:45:14;17.30;99.90
3035;DHT22;1527;48.836;9.172;2022-09-16T00:47:47;17.30;99.90
3035;DHT22;1527;48.836;9.172;2022-09-16T00:50:21;17.20;99.90
3035;DHT22;1527;48.836;9.172;2022-09-16T00:53:00;17.20;99.90
3035;DHT22;1527;48.836;9.172;2022-09-16T00:55:31;17.30;99.90
3035;DHT22;1527;48.836;9.172;2022-09-16T00:58:05;17.30;99.90
3035;DHT22;1527;48.836;9.172;2022-09-16T01:00:39;17.40;99.90
3035;DHT22;1527;48.836;9.172;2022-09-16T01:03:09;17.40;99.90
3035;DHT22;1527;48.836;9.172;2022-09-16T01:05:38;17.30;99.90
3035;DHT22;1527;48.836;9.172;2022-09-16T01:08:07;17.30;99.90
3035;DHT22;1527;48.836;9.172;2022-09-16T01:10:40;17.30;99.90
3035;DHT22;1527;48.836;9.172;2022-09-16T01:13:13;17.30;99.90
3035;DHT22;1527;48.836;9.172;2022-09-16T01:15:48;17.10;99.90
3035;DHT22;1527;48.836;9.172;2022-09-16T01:18:27;17.10;99.90
3035;DHT22;1527;48.836;9.172;2022-09-16T01:21:21;17.10;99.90
3035;DHT22;1527;48.836;9.172;2022-09-16T01:24:21;17.10;99.90
3035;DHT22;1527;48.836;9.172;2022-09-16T01:27:25;17.20;99.90
3035;DHT22;1527;48.836;9.172;2022-09-16T01:33:22;17.10;99.90
3035;DHT22;1527;48.836;9.172;2022-09-16T01:36:20;17.10;99.90
3035;DHT22;1527;48.836;9.172;2022-09-16T01:39:08;17.20;99.90
3035;DHT22;1527;48.836;9.172;2022-09-16T01:41:58;17.10;99.90
3035;DHT22;1527;48.836;9.172;2022-09-16T01:44:38;17.00;99.90
3035;DHT22;1527;48.836;9.172;2022-09-16T01:47:18;16.90;99.90
3035;DHT22;1527;48.836;9.172;2022-09-16T01:49:57;16.90;99.90
3035;DHT22;1527;48.836;9.172;2022-09-16T01:52:38;16.80;99.90
3035;DHT22;1527;48.836;9.172;2022-09-16T01:55:17;16.90;99.90
3035;DHT22;1527;48.836;9.172;2022-09-16T01:57:51;16.90;99.90
3035;DHT22;1527;48.836;9.172;2022-09-16T02:00:21;16.80;99.90
3035;DHT22;1527;48.836;9.172;2022-09-16T02:02:55;16.80;99.90
3035;DHT22;1527;48.836;9.172;2022-09-16T02:05:30;16.70;99.90
3035;DHT22;1527;48.836;9.172;2022-09-16T02:08:05;16.80;99.90
3035;DHT22;1527;48.836;9.172;2022-09-16T02:10:39;16.70;99.90
3035;DHT22;1527;48.836;9.172;2022-09-16T02:13:12;16.70;99.90
3035;DHT22;1527;48.836;9.172;2022-09-16T02:15:43;16.60;99.90
3035;DHT22;1527;48.836;9.172;2022-09-16T02:18:21;16.60;99.90
3035;DHT22;1527;48.836;9.172;2022-09-16T02:20:54;16.60;99.90
3035;DHT22;1527;48.836;9.172;2022-09-16T02:23:29;16.60;99.90
3035;DHT22;1527;48.836;9.172;2022-09-16T02:26:01;16.60;99.90
3035;DHT22;1527;48.836;9.172;2022-09-16T02:28:35;16.60;99.90
3035;DHT22;1527;48.836;9.172;2022-09-16T02:31:08;16.60;99.90
3035;DHT22;1527;48.836;9.172;2022-09-16T02:33:44;16.70;99.90
3035;DHT22;1527;48.836;9.172;2022-09-16T02:36:19;16.70;99.90
3035;DHT22;1527;48.836;9.172;2022-09-16T02:38:52;16.70;99.90
3035;DHT22;1527;48.836;9.172;2022-09-16T02:41:22;16.70;99.90
3035;DHT22;1527;48.836;9.172;2022-09-16T02:43:51;16.70;99.90
3035;DHT22;1527;48.836;9.172;2022-09-16T02:46:25;16.70;99.90
3035;DHT22;1527;48.836;9.172;2022-09-16T02:49:08;16.70;99.90
3035;DHT22;1527;48.836;9.172;2022-09-16T02:51:46;16.60;99.90
3035;DHT22;1527;48.836;9.172;2022-09-16T02:54:23;16.60;99.90
3035;DHT22;1527;48.836;9.172;2022-09-16T02:56:55;16.60;99.90
3035;DHT22;1527;48.836;9.172;2022-09-16T02:59:25;16.70;99.90
3035;DHT22;1527;48.836;9.172;2022-09-16T03:01:54;16.70;99.90
3035;DHT22;1527;48.836;9.172;2022-09-16T03:04:24;16.60;99.90
3035;DHT22;1527;48.836;9.172;2022-09-16T03:06:53;16.70;99.90
3035;DHT22;1527;48.836;9.172;2022-09-16T03:09:23;16.70;99.90
3035;DHT22;1527;48.836;9.172;2022-09-16T03:12:04;16.70;99.90
3035;DHT22;1527;48.836;9.172;2022-09-16T03:18:11;16.50;99.90
3035;DHT22;1527;48.836;9.172;2022-09-16T03:21:04;16.50;99.90
3035;DHT22;1527;48.836;9.172;2022-09-16T03:23:43;16.50;99.90
3035;DHT22;1527;48.836;9.172;2022-09-16T03:26:22;16.50;99.90
3035;DHT22;1527;48.836;9.172;2022-09-16T03:29:03;16.60;99.90
3035;DHT22;1527;48.836;9.172;2022-09-16T03:31:45;16.60;99.90
3035;DHT22;1527;48.836;9.172;2022-09-16T03:34:19;16.60;99.90
3035;DHT22;1527;48.836;9.172;2022-09-16T03:36:53;16.50;99.90
3035;DHT22;1527;48.836;9.172;2022-09-16T03:39:25;16.50;99.90
3035;DHT22;1527;48.836;9.172;2022-09-16T03:41:54;16.50;99.90
3035;DHT22;1527;48.836;9.172;2022-09-16T03:44:32;16.60;99.90
3035;DHT22;1527;48.836;9.172;2022-09-16T03:47:02;16.60;99.90
3035;DHT22;1527;48.836;9.172;2022-09-16T03:49:32;16.60;99.90
3035;DHT22;1527;48.836;9.172;2022-09-16T03:52:03;16.60;99.90
3035;DHT22;1527;48.836;9.172;2022-09-16T03:54:34;16.60;99.90
3035;DHT22;1527;48.836;9.172;2022-09-16T03:57:04;16.70;99.90
3035;DHT22;1527;48.836;9.172;2022-09-16T03:59:33;16.60;99.90
3035;DHT22;1527;48.836;9.172;2022-09-16T04:02:02;16.60;99.90
3035;DHT22;1527;48.836;9.172;2022-09-16T04:04:31;16.60;99.90
3035;DHT22;1527;48.836;9.172;2022-09-16T04:07:03;16.60;99.90
3035;DHT22;1527;48.836;9.172;2022-09-16T04:09:32;16.70;99.90
3035;DHT22;1527;48.836;9.172;2022-09-16T04:12:04;16.70;99.90
3035;DHT22;1527;48.836;9.172;2022-09-16T04:14:34;16.80;99.90
3035;DHT22;1527;48.836;9.172;2022-09-16T04:17:03;16.80;99.90
3035;DHT22;1527;48.836;9.172;2022-09-16T04:19:33;16.90;99.90
3035;DHT22;1527;48.836;9.172;2022-09-16T04:22:03;16.80;99.90
3035;DHT22;1527;48.836;9.172;2022-09-16T04:24:32;16.90;99.90
3035;DHT22;1527;48.836;9.172;2022-09-16T04:27:05;16.90;99.90
3035;DHT22;1527;48.836;9.172;2022-09-16T04:29:34;16.90;99.90
3035;DHT22;1527;48.836;9.172;2022-09-16T04:32:03;16.90;99.90
3035;DHT22;1527;48.836;9.172;2022-09-16T04:34:33;17.00;99.90
3035;DHT22;1527;48.836;9.172;2022-09-16T04:37:03;17.00;99.90
3035;DHT22;1527;48.836;9.172;2022-09-16T04:39:32;17.00;99.90
3035;DHT22;1527;48.836;9.172;2022-09-16T04:42:01;17.00;99.90
3035;DHT22;1527;48.836;9.172;2022-09-16T04:44:32;17.00;99.90
3035;DHT22;1527;48.836;9.172;2022-09-16T04:47:00;16.90;99.90
3035;DHT22;1527;48.836;9.172;2022-09-16T04:49:29;16.90;99.90
3035;DHT22;1527;48.836;9.172;2022-09-16T04:51:58;16.80;99.90
3035;DHT22;1527;48.836;9.172;2022-09-16T04:54:29;16.80;99.90
3035;DHT22;1527;48.836;9.172;2022-09-16T04:56:58;16.80;99.90
3035;DHT22;1527;48.836;9.172;2022-09-16T04:59:28;16.80;99.90
3035;DHT22;1527;48.836;9.172;2022-09-16T05:01:58;16.70;99.90
3035;DHT22;1527;48.836;9.172;2022-09-16T05:04:28;16.80;99.90
3035;DHT22;1527;48.836;9.172;2022-09-16T05:06:57;16.80;99.90
3035;DHT22;1527;48.836;9.172;2022-09-16T05:09:26;16.80;99.90
3035;DHT22;1527;48.836;9.172;2022-09-16T05:11:57;16.80;99.90
3035;DHT22;1527;48.836;9.172;2022-09-16T05:14:26;16.80;99.90
3035;DHT22;1527;48.836;9.172;2022-09-16T05:16:55;16.80;99.90
3035;DHT22;1527;48.836;9.172;2022-09-16T05:19:25;17.00;99.90
3035;DHT22;1527;48.836;9.172;2022-09-16T05:21:54;16.80;99.90
3035;DHT22;1527;48.836;9.172;2022-09-16T05:24:24;16.80;99.90
3035;DHT22;1527;48.836;9.172;2022-09-16T05:26:53;16.80;99.90
3035;DHT22;1527;48.836;9.172;2022-09-16T05:29:24;16.80;99.90
3035;DHT22;1527;48.836;9.172;2022-09-16T05:31:53;16.90;99.90
3035;DHT22;1527;48.836;9.172;2022-09-16T05:34:24;16.90;99.90
3035;DHT22;1527;48.836;9.172;2022-09-16T05:36:55;16.90;99.90
3035;DHT22;1527;48.836;9.172;2022-09-16T05:39:24;16.90;99.90
3035;DHT22;1527;48.836;9.172;2022-09-16T05:41:55;16.90;99.90
3035;DHT22;1527;48.836;9.172;2022-09-16T05:44:27;16.90;99.90
3035;DHT22;1527;48.836;9.172;2022-09-16T05:46:56;16.90;99.90
3035;DHT22;1527;48.836;9.172;2022-09-16T05:49:25;16.80;99.90
3035;DHT22;1527;48.836;9.172;2022-09-16T05:51:54;16.80;99.90
3035;DHT22;1527;48.836;9.172;2022-09-16T05:54:23;16.80;99.90
3035;DHT22;1527;48.836;9.172;2022-09-16T05:56:53;16.80;99.90
3035;DHT22;1527;48.836;9.172;2022-09-16T05:59:22;16.80;99.90
3035;DHT22;1527;48.836;9.172;2022-09-16T06:01:52;16.90;99.90
3035;DHT22;1527;48.836;9.172;2022-09-16T06:04:22;16.90;99.90
3035;DHT22;1527;48.836;9.172;2022-09-16T06:06:53;16.80;99.90
3035;DHT22;1527;48.836;9.172;2022-09-16T06:09:23;16.90;99.90
3035;DHT22;1527;48.836;9.172;2022-09-16T06:11:53;16.80;99.90
3035;DHT22;1527;48.836;9.172;2022-09-16T06:14:29;16.80;99.90
3035;DHT22;1527;48.836;9.172;2022-09-16T06:17:00;16.70;99.90
3035;DHT22;1527;48.836;9.172;2022-09-16T06:19:29;16.80;99.90
3035;DHT22;1527;48.836;9.172;2022-09-16T06:21:58;16.70;99.90
3035;DHT22;1527;48.836;9.172;2022-09-16T06:24:27;16.70;99.90
3035;DHT22;1527;48.836;9.172;2022-09-16T06:26:56;16.70;99.90
3035;DHT22;1527;48.836;9.172;2022-09-16T06:29:25;16.60;99.90
3035;DHT22;1527;48.836;9.172;2022-09-16T06:31:54;16.60;99.90
3035;DHT22;1527;48.836;9.172;2022-09-16T06:34:26;16.60;99.90
3035;DHT22;1527;48.836;9.172;2022-09-16T06:36:55;16.60;99.90
3035;DHT22;1527;48.836;9.172;2022-09-16T06:39:24;16.60;99.90
3035;DHT22;1527;48.836;9.172;2022-09-16T06:41:53;16.60;99.90
3035;DHT22;1527;48.836;9.172;2022-09-16T06:44:31;16.60;99.90
3035;DHT22;1527;48.836;9.172;2022-09-16T06:47:00;16.60;99.90
3035;DHT22;1527;48.836;9.172;2022-09-16T06:49:30;16.60;99.90
3035;DHT22;1527;48.836;9.172;2022-09-16T06:51:59;16.50;99.90
3035;DHT22;1527;48.836;9.172;2022-09-16T06:54:29;16.40;99.90
3035;DHT22;1527;48.836;9.172;2022-09-16T06:56:58;16.20;99.90
3035;DHT22;1527;48.836;9.172;2022-09-16T06:59:28;16.10;99.90
3035;DHT22;1527;48.836;9.172;2022-09-16T07:01:57;15.90;99.90
3035;DHT22;1527;48.836;9.172;2022-09-16T07:04:26;15.60;99.90
3035;DHT22;1527;48.836;9.172;2022-09-16T07:06:57;15.40;99.90
3035;DHT22;1527;48.836;9.172;2022-09-16T07:09:42;15.10;99.90
3035;DHT22;1527;48.836;9.172;2022-09-16T07:12:11;15.00;99.90
3035;DHT22;1527;48.836;9.172;2022-09-16T07:14:46;15.00;99.90
3035;DHT22;1527;48.836;9.172;2022-09-16T07:17:15;14.90;99.90
3035;DHT22;1527;48.836;9.172;2022-09-16T07:19:44;15.00;99.90
3035;DHT22;1527;48.836;9.172;2022-09-16T07:22:15;15.00;99.90
3035;DHT22;1527;48.836;9.172;2022-09-16T07:24:44;15.10;99.90
3035;DHT22;1527;48.836;9.172;2022-09-16T07:27:13;15.20;99.90
3035;DHT22;1527;48.836;9.172;2022-09-16T07:29:42;15.30;99.90
3035;DHT22;1527;48.836;9.172;2022-09-16T07:32:11;15.40;99.90
3035;DHT22;1527;48.836;9.172;2022-09-16T07:34:40;15.50;99.90
3035;DHT22;1527;48.836;9.172;2022-09-16T07:37:09;15.50;99.90
3035;DHT22;1527;48.836;9.172;2022-09-16T07:39:40;15.50;99.90
3035;DHT22;1527;48.836;9.172;2022-09-16T07:42:09;15.50;99.90
3035;DHT22;1527;48.836;9.172;2022-09-16T07:44:38;15.50;99.90
3035;DHT22;1527;48.836;9.172;2022-09-16T07:47:07;15.60;99.90
3035;DHT22;1527;48.836;9.172;2022-09-16T07:49:36;15.40;99.90
3035;DHT22;1527;48.836;9.172;2022-09-16T07:52:05;15.50;99.90
3035;DHT22;1527;48.836;9.172;2022-09-16T07:54:34;15.40;99.90
3035;DHT22;1527;48.836;9.172;2022-09-16T07:57:05;15.40;99.90
3035;DHT22;1527;48.836;9.172;2022-09-16T07:59:34;15.40;99.90
3035;DHT22;1527;48.836;9.172;2022-09-16T08:02:03;15.40;99.90
3035;DHT22;1527;48.836;9.172;2022-09-16T08:04:32;15.50;99.90
3035;DHT22;1527;48.836;9.172;2022-09-16T08:07:01;15.60;99.90
3035;DHT22;1527;48.836;9.172;2022-09-16T08:09:31;15.70;99.90
3035;DHT22;1527;48.836;9.172;2022-09-16T08:12:10;15.80;99.90
3035;DHT22;1527;48.836;9.172;2022-09-16T08:14:41;15.90;99.90
3035;DHT22;1527;48.836;9.172;2022-09-16T08:17:10;16.00;99.90
3035;DHT22;1527;48.836;9.172;2022-09-16T08:19:39;16.10;99.90
3035;DHT22;1527;48.836;9.172;2022-09-16T08:22:08;16.10;99.90
3035;DHT22;1527;48.836;9.172;2022-09-16T08:24:37;16.20;99.90
3035;DHT22;1527;48.836;9.172;2022-09-16T08:27:06;16.30;99.90
3035;DHT22;1527;48.836;9.172;2022-09-16T08:29:37;16.30;99.90
3035;DHT22;1527;48.836;9.172;2022-09-16T08:32:06;16.40;99.90
3035;DHT22;1527;48.836;9.172;2022-09-16T08:34:35;16.50;99.90
3035;DHT22;1527;48.836;9.172;2022-09-16T08:37:06;16.50;99.90
3035;DHT22;1527;48.836;9.172;2022-09-16T08:39:35;16.50;99.90
3035;DHT22;1527;48.836;9.172;2022-09-16T08:42:26;16.50;99.90
3035;DHT22;1527;48.836;9.172;2022-09-16T08:45:06;16.60;99.90
3035;DHT22;1527;48.836;9.172;2022-09-16T08:47:51;16.50;99.90
3035;DHT22;1527;48.836;9.172;2022-09-16T08:50:37;16.60;99.90
3035;DHT22;1527;48.836;9.172;2022-09-16T08:53:12;16.50;99.90
3035;DHT22;1527;48.836;9.172;2022-09-16T08:55:47;16.50;99.90
3035;DHT22;1527;48.836;9.172;2022-09-16T08:58:19;16.60;99.90
3035;DHT22;1527;48.836;9.172;2022-09-16T09:00:53;16.70;99.90
3035;DHT22;1527;48.836;9.172;2022-09-16T09:03:33;16.60;99.90
3035;DHT22;1527;48.836;9.172;2022-09-16T09:06:13;16.70;99.90
3035;DHT22;1527;48.836;9.172;2022-09-16T09:08:55;16.80;99.90
3035;DHT22;1527;48.836;9.172;2022-09-16T09:11:34;16.90;99.90
3035;DHT22;1527;48.836;9.172;2022-09-16T09:14:21;16.80;99.90
3035;DHT22;1527;48.836;9.172;2022-09-16T09:17:03;16.80;99.90
3035;DHT22;1527;48.836;9.172;2022-09-16T09:19:47;16.90;99.90
3035;DHT22;1527;48.836;9.172;2022-09-16T09:22:37;17.00;99.90
3035;DHT22;1527;48.836;9.172;2022-09-16T09:25:21;17.00;99.90
3035;DHT22;1527;48.836;9.172;2022-09-16T09:28:04;17.10;99.90
3035;DHT22;1527;48.836;9.172;2022-09-16T09:30:54;17.10;99.90
3035;DHT22;1527;48.836;9.172;2022-09-16T09:33:35;17.10;99.90
3035;DHT22;1527;48.836;9.172;2022-09-16T09:39:43;17.20;99.90
3035;DHT22;1527;48.836;9.172;2022-09-16T09:42:22;17.30;99.90
3035;DHT22;1527;48.836;9.172;2022-09-16T09:44:58;17.30;99.90
3035;DHT22;1527;48.836;9.172;2022-09-16T09:47:34;17.30;99.90
3035;DHT22;1527;48.836;9.172;2022-09-16T09:50:14;17.30;99.90
3035;DHT22;1527;48.836;9.172;2022-09-16T09:52:51;17.30;99.90
3035;DHT22;1527;48.836;9.172;2022-09-16T09:55:26;17.30;99.90
3035;DHT22;1527;48.836;9.172;2022-09-16T09:58:25;17.40;99.90
3035;DHT22;1527;48.836;9.172;2022-09-16T10:00:59;17.50;99.90
3035;DHT22;1527;48.836;9.172;2022-09-16T10:03:29;17.50;99.90
3035;DHT22;1527;48.836;9.172;2022-09-16T10:05:59;17.50;99.90
3035;DHT22;1527;48.836;9.172;2022-09-16T10:08:33;17.50;99.90
3035;DHT22;1527;48.836;9.172;2022-09-16T10:11:15;17.50;99.90
3035;DHT22;1527;48.836;9.172;2022-09-16T10:13:49;17.50;99.90
3035;DHT22;1527;48.836;9.172;2022-09-16T10:16:21;17.30;99.90
3035;DHT22;1527;48.836;9.172;2022-09-16T10:18:56;17.40;99.90
3035;DHT22;1527;48.836;9.172;2022-09-16T10:21:40;17.30;99.90
3035;DHT22;1527;48.836;9.172;2022-09-16T10:24:31;17.30;99.90
3035;DHT22;1527;48.836;9.172;2022-09-16T10:27:15;17.30;99.90
3035;DHT22;1527;48.836;9.172;2022-09-16T10:29:47;17.40;99.90
3035;DHT22;1527;48.836;9.172;2022-09-16T10:32:17;17.40;99.90
3035;DHT22;1527;48.836;9.172;2022-09-16T10:34:47;17.40;99.90
3035;DHT22;1527;48.836;9.172;2022-09-16T10:37:18;17.40;99.90
3035;DHT22;1527;48.836;9.172;2022-09-16T10:39:50;17.30;99.90
3035;DHT22;1527;48.836;9.172;2022-09-16T10:42:22;17.20;99.90
3035;DHT22;1527;48.836;9.172;2022-09-16T10:44:53;17.20;99.90
3035;DHT22;1527;48.836;9.172;2022-09-16T10:47:25;17.10;99.90
3035;DHT22;1527;48.836;9.172;2022-09-16T10:49:57;17.10;99.90
3035;DHT22;1527;48.836;9.172;2022-09-16T10:52:31;17.00;99.90
3035;DHT22;1527;48.836;9.172;2022-09-16T10:55:21;17.10;99.90
3035;DHT22;1527;48.836;9.172;2022-09-16T10:57:53;17.10;99.90
3035;DHT22;1527;48.836;9.172;2022-09-16T11:00:24;17.20;99.90
3035;DHT22;1527;48.836;9.172;2022-09-16T11:03:33;17.20;99.90
3035;DHT22;1527;48.836;9.172;2022-09-16T11:06:34;17.30;99.90
3035;DHT22;1527;48.836;9.172;2022-09-16T11:09:17;17.30;99.90
3035;DHT22;1527;48.836;9.172;2022-09-16T11:12:05;17.20;99.90
3035;DHT22;1527;48.836;9.172;2022-09-16T11:14:59;17.00;99.90
3035;DHT22;1527;48.836;9.172;2022-09-16T11:17:43;17.00;99.90
3035;DHT22;1527;48.836;9.172;2022-09-16T11:20:41;17.00;99.90
3035;DHT22;1527;48.836;9.172;2022-09-16T11:23:25;17.00;99.90
3035;DHT22;1527;48.836;9.172;2022-09-16T11:26:09;17.10;99.90
3035;DHT22;1527;48.836;9.172;2022-09-16T11:29:05;17.00;99.90
3035;DHT22;1527;48.836;9.172;2022-09-16T11:31:48;16.90;99.90
3035;DHT22;1527;48.836;9.172;2022-09-16T11:34:33;16.70;99.90
3035;DHT22;1527;48.836;9.172;2022-09-16T11:37:13;16.70;99.90
3035;DHT22;1527;48.836;9.172;2022-09-16T11:39:55;16.80;99.90
3035;DHT22;1527;48.836;9.172;2022-09-16T11:42:34;16.80;99.90
3035;DHT22;1527;48.836;9.172;2022-09-16T11:45:17;16.70;99.90
3035;DHT22;1527;48.836;9.172;2022-09-16T11:48:05;16.70;99.90
3035;DHT22;1527;48.836;9.172;2022-09-16T11:50:48;16.70;99.90
3035;DHT22;1527;48.836;9.172;2022-09-16T11:53:35;16.80;99.90
3035;DHT22;1527;48.836;9.172;2022-09-16T11:56:17;16.80;99.90
3035;DHT22;1527;48.836;9.172;2022-09-16T11:58:52;16.80;99.90
3035;DHT22;1527;48.836;9.172;2022-09-16T12:01:29;16.80;99.90
3035;DHT22;1527;48.836;9.172;2022-09-16T12:04:05;16.90;99.90
3035;DHT22;1527;48.836;9.172;2022-09-16T12:06:45;17.10;99.90
3035;DHT22;1527;48.836;9.172;2022-09-16T12:09:25;17.20;99.90
3035;DHT22;1527;48.836;9.172;2022-09-16T12:12:02;17.30;99.90
3035;DHT22;1527;48.836;9.172;2022-09-16T12:14:41;17.40;99.90
3035;DHT22;1527;48.836;9.172;2022-09-16T12:17:15;17.60;99.90
3035;DHT22;1527;48.836;9.172;2022-09-16T12:19:51;17.60;99.90
3035;DHT22;1527;48.836;9.172;2022-09-16T12:22:25;17.70;99.90
3035;DHT22;1527;48.836;9.172;2022-09-16T12:25:01;17.80;99.90
3035;DHT22;1527;48.836;9.172;2022-09-16T12:27:39;18.00;99.90
3035;DHT22;1527;48.836;9.172;2022-09-16T12:30:16;18.00;99.90
3035;DHT22;1527;48.836;9.172;2022-09-16T12:32:53;18.10;99.90
3035;DHT22;1527;48.836;9.172;2022-09-16T12:35:28;18.10;99.90
3035;DHT22;1527;48.836;9.172;2022-09-16T12:37:59;18.20;99.90
3035;DHT22;1527;48.836;9.172;2022-09-16T12:40:36;18.30;99.90
3035;DHT22;1527;48.836;9.172;2022-09-16T12:43:30;18.30;99.90
3035;DHT22;1527;48.836;9.172;2022-09-16T12:46:37;18.40;99.90
3035;DHT22;1527;48.836;9.172;2022-09-16T12:49:45;18.50;99.90
3035;DHT22;1527;48.836;9.172;2022-09-16T12:53:05;18.40;99.90
3035;DHT22;1527;48.836;9.172;2022-09-16T12:56:01;18.50;99.90
3035;DHT22;1527;48.836;9.172;2022-09-16T13:02:15;18.40;99.90
3035;DHT22;1527;48.836;9.172;2022-09-16T13:04:48;18.40;99.90
3035;DHT22;1527;48.836;9.172;2022-09-16T13:07:23;18.50;99.90
3035;DHT22;1527;48.836;9.172;2022-09-16T13:10:01;18.50;99.90
3035;DHT22;1527;48.836;9.172;2022-09-16T13:12:31;18.40;99.90
3035;DHT22;1527;48.836;9.172;2022-09-16T13:15:22;18.50;99.90
3035;DHT22;1527;48.836;9.172;2022-09-16T13:18:05;18.60;99.90
3035;DHT22;1527;48.836;9.172;2022-09-16T13:20:39;18.30;99.90
3035;DHT22;1527;48.836;9.172;2022-09-16T13:23:16;18.30;99.90
3035;DHT22;1527;48.836;9.172;2022-09-16T13:25:54;18.20;99.90
3035;DHT22;1527;48.836;9.172;2022-09-16T13:28:34;18.10;99.90
3035;DHT22;1527;48.836;9.172;2022-09-16T13:31:16;18.10;99.90
3035;DHT22;1527;48.836;9.172;2022-09-16T13:34:09;18.10;99.90
3035;DHT22;1527;48.836;9.172;2022-09-16T13:36:42;18.20;99.90
3035;DHT22;1527;48.836;9.172;2022-09-16T13:39:13;18.30;99.90
3035;DHT22;1527;48.836;9.172;2022-09-16T13:41:46;18.40;99.90
3035;DHT22;1527;48.836;9.172;2022-09-16T13:44:38;18.50;99.90
3035;DHT22;1527;48.836;9.172;2022-09-16T13:47:16;18.50;99.90
3035;DHT22;1527;48.836;9.172;2022-09-16T13:49:52;18.40;99.90
3035;DHT22;1527;48.836;9.172;2022-09-16T13:52:27;18.50;99.90
3035;DHT22;1527;48.836;9.172;2022-09-16T13:54:59;18.60;99.90
3035;DHT22;1527;48.836;9.172;2022-09-16T13:57:47;18.50;99.90
3035;DHT22;1527;48.836;9.172;2022-09-16T14:00:23;18.60;99.90
3035;DHT22;1527;48.836;9.172;2022-09-16T14:03:17;18.50;99.90
3035;DHT22;1527;48.836;9.172;2022-09-16T14:09:30;18.60;99.90
3035;DHT22;1527;48.836;9.172;2022-09-16T14:12:19;18.50;99.90
3035;DHT22;1527;48.836;9.172;2022-09-16T14:14:57;18.40;99.90
3035;DHT22;1527;48.836;9.172;2022-09-16T14:17:31;18.50;99.90
3035;DHT22;1527;48.836;9.172;2022-09-16T14:20:04;18.60;99.90
3035;DHT22;1527;48.836;9.172;2022-09-16T14:22:35;18.70;99.90
3035;DHT22;1527;48.836;9.172;2022-09-16T14:25:29;18.40;99.90
3035;DHT22;1527;48.836;9.172;2022-09-16T14:28:18;18.30;99.90
3035;DHT22;1527;48.836;9.172;2022-09-16T14:30:53;18.40;99.90
3035;DHT22;1527;48.836;9.172;2022-09-16T14:33:26;18.30;99.90
3035;DHT22;1527;48.836;9.172;2022-09-16T14:35:59;18.30;99.90
3035;DHT22;1527;48.836;9.172;2022-09-16T14:38:34;18.40;99.90
3035;DHT22;1527;48.836;9.172;2022-09-16T14:41:20;18.40;99.90
3035;DHT22;1527;48.836;9.172;2022-09-16T14:43:53;18.40;99.90
3035;DHT22;1527;48.836;9.172;2022-09-16T14:46:28;18.40;99.90
3035;DHT22;1527;48.836;9.172;2022-09-16T14:48:57;18.40;99.90
3035;DHT22;1527;48.836;9.172;2022-09-16T14:51:27;18.40;99.90
3035;DHT22;1527;48.836;9.172;2022-09-16T14:53:58;18.30;99.90
3035;DHT22;1527;48.836;9.172;2022-09-16T14:56:39;18.40;99.90
3035;DHT22;1527;48.836;9.172;2022-09-16T14:59:10;18.40;99.90
3035;DHT22;1527;48.836;9.172;2022-09-16T15:01:40;18.40;99.90
3035;DHT22;1527;48.836;9.172;2022-09-16T15:04:14;18.40;99.90
3035;DHT22;1527;48.836;9.172;2022-09-16T15:06:49;18.40;99.90
3035;DHT22;1527;48.836;9.172;2022-09-16T15:09:37;18.40;99.90
3035;DHT22;1527;48.836;9.172;2022-09-16T15:12:19;18.50;99.90
3035;DHT22;1527;48.836;9.172;2022-09-16T15:14:52;18.40;99.90
3035;DHT22;1527;48.836;9.172;2022-09-16T15:17:24;18.30;99.90
3035;DHT22;1527;48.836;9.172;2022-09-16T15:19:56;18.20;99.90
3035;DHT22;1527;48.836;9.172;2022-09-16T15:22:26;18.30;99.90
3035;DHT22;1527;48.836;9.172;2022-09-16T15:24:57;18.20;99.90
3035;DHT22;1527;48.836;9.172;2022-09-16T15:27:28;18.10;99.90
3035;DHT22;1527;48.836;9.172;2022-09-16T15:30:00;18.20;99.90
3035;DHT22;1527;48.836;9.172;2022-09-16T15:32:42;18.00;99.90
3035;DHT22;1527;48.836;9.172;2022-09-16T15:35:20;18.10;99.90
3035;DHT22;1527;48.836;9.172;2022-09-16T15:37:52;18.20;99.90
3035;DHT22;1527;48.836;9.172;2022-09-16T15:40:32;18.00;99.90
3035;DHT22;1527;48.836;9.172;2022-09-16T15:43:14;18.10;99.90
3035;DHT22;1527;48.836;9.172;2022-09-16T15:45:56;18.10;99.90
3035;DHT22;1527;48.836;9.172;2022-09-16T15:48:30;18.00;99.90
3035;DHT22;1527;48.836;9.172;2022-09-16T15:51:06;18.00;99.90
3035;DHT22;1527;48.836;9.172;2022-09-16T15:53:40;17.90;99.90
3035;DHT22;1527;48.836;9.172;2022-09-16T15:56:24;18.10;99.90
3035;DHT22;1527;48.836;9.172;2022-09-16T15:58:58;17.90;99.90
3035;DHT22;1527;48.836;9.172;2022-09-16T16:01:42;17.90;99.90
3035;DHT22;1527;48.836;9.172;2022-09-16T16:04:26;17.80;99.90
3035;DHT22;1527;48.836;9.172;2022-09-16T16:06:58;17.90;99.90
3035;DHT22;1527;48.836;9.172;2022-09-16T16:09:40;17.90;99.90
3035;DHT22;1527;48.836;9.172;2022-09-16T16:12:13;17.90;99.90
3035;DHT22;1527;48.836;9.172;2022-09-16T16:14:43;18.00;99.90
3035;DHT22;1527;48.836;9.172;2022-09-16T16:17:15;17.90;99.90
3035;DHT22;1527;48.836;9.172;2022-09-16T16:19:46;17.90;99.90
3035;DHT22;1527;48.836;9.172;2022-09-16T16:22:16;18.00;99.90
3035;DHT22;1527;48.836;9.172;2022-09-16T16:24:47;18.00;99.90
3035;DHT22;1527;48.836;9.172;2022-09-16T16:27:17;18.00;99.90
3035;DHT22;1527;48.836;9.172;2022-09-16T16:29:46;18.00;99.90
3035;DHT22;1527;48.836;9.172;2022-09-16T16:32:16;18.00;99.90
3035;DHT22;1527;48.836;9.172;2022-09-16T16:34:47;18.00;99.90
3035;DHT22;1527;48.836;9.172;2022-09-16T16:37:18;18.10;99.90
3035;DHT22;1527;48.836;9.172;2022-09-16T16:40:08;18.00;99.90
3035;DHT22;1527;48.836;9.172;2022-09-16T16:42:40;18.00;99.90
3035;DHT22;1527;48.836;9.172;2022-09-16T16:45:10;17.90;99.90
3035;DHT22;1527;48.836;9.172;2022-09-16T16:47:41;18.00;99.90
3035;DHT22;1527;48.836;9.172;2022-09-16T16:50:10;17.70;99.90
3035;DHT22;1527;48.836;9.172;2022-09-16T16:52:41;17.70;99.90
3035;DHT22;1527;48.836;9.172;2022-09-16T16:55:14;17.70;99.90
3035;DHT22;1527;48.836;9.172;2022-09-16T16:57:44;17.40;99.90
3035;DHT22;1527;48.836;9.172;2022-09-16T17:00:15;17.40;99.90
3035;DHT22;1527;48.836;9.172;2022-09-16T17:02:45;17.40;99.90
3035;DHT22;1527;48.836;9.172;2022-09-16T17:05:14;17.40;99.90
3035;DHT22;1527;48.836;9.172;2022-09-16T17:07:43;17.30;99.90
3035;DHT22;1527;48.836;9.172;2022-09-16T17:10:13;17.10;99.90
3035;DHT22;1527;48.836;9.172;2022-09-16T17:12:42;17.10;99.90